Time;durP1;ratioP1;P1;durP2;ratioP2;P2;SDS_P1;SDS_P2;PMS_P1;PMS_P2;Temp;Humidity;BMP_temperature;BMP_pressure;BME280_temperature;BME280_humidity;BME280_pressure;Samples;Min_cycle;Max_cycle;Signal;HPM_P1;HPM_P2
2024/02/02 00:04:36;;;;;;;15.25;10.70;;;;;;;;;;10400871;28;20470;-60
2024/02/02 00:09:37;;;;;;;19.23;11.10;;;;;;;;;;10405481;28;20404;-60
2024/02/02 00:14:38;;;;;;;19.95;12.18;;;;;;;;;;10403052;28;20037;-60
2024/02/02 00:19:38;;;;;;;18.80;11.43;;;;;;;;;;10404322;28;20033;-61
2024/02/02 00:24:39;;;;;;;16.63;11.77;;;;;;;;;;10404291;28;20424;-60
2024/02/02 00:29:42;;;;;;;16.17;10.30;;;;;;;;;;10403430;28;20112;-59
2024/02/02 00:34:42;;;;;;;14.93;10.43;;;;;;;;;;10403412;28;20505;-60
2024/02/02 00:39:43;;;;;;;16.92;10.90;;;;;;;;;;10403421;28;20049;-60
2024/02/02 00:44:44;;;;;;;17.50;10.93;;;;;;;;;;10407812;28;20026;-59
2024/02/02 00:49:44;;;;;;;18.80;10.80;;;;;;;;;;10410882;28;20386;-59
2024/02/02 00:54:45;;;;;;;14.98;10.48;;;;;;;;;;10410189;28;20025;-59
2024/02/02 00:59:47;;;;;;;13.93;9.80;;;;;;;;;;10410395;28;20032;-59
2024/02/02 01:04:48;;;;;;;15.65;10.35;;;;;;;;;;10407090;28;20083;-59
2024/02/02 01:09:49;;;;;;;18.77;10.48;;;;;;;;;;10410355;28;20093;-60
2024/02/02 01:14:49;;;;;;;13.88;10.27;;;;;;;;;;10409248;28;20028;-59
2024/02/02 01:19:50;;;;;;;15.38;10.35;;;;;;;;;;10410272;28;20544;-59
2024/02/02 01:24:50;;;;;;;16.13;10.48;;;;;;;;;;10409309;28;20025;-59
2024/02/02 01:29:51;;;;;;;13.43;9.57;;;;;;;;;;10409547;28;20026;-59
2024/02/02 01:34:52;;;;;;;15.27;9.45;;;;;;;;;;10408416;28;20036;-59
2024/02/02 01:39:52;;;;;;;16.77;9.68;;;;;;;;;;10408874;28;20456;-58
2024/02/02 01:44:53;;;;;;;12.65;9.75;;;;;;;;;;10408162;28;20026;-59
2024/02/02 01:49:53;;;;;;;16.17;9.95;;;;;;;;;;10408232;28;20491;-59
2024/02/02 01:54:55;;;;;;;14.05;9.02;;;;;;;;;;10406126;28;20149;-59
2024/02/02 01:59:56;;;;;;;14.85;9.75;;;;;;;;;;10405973;28;20025;-59
2024/02/02 02:04:57;;;;;;;15.23;10.05;;;;;;;;;;10405285;28;20461;-60
2024/02/02 02:09:58;;;;;;;13.52;8.98;;;;;;;;;;10407849;28;20025;-59
2024/02/02 02:14:58;;;;;;;15.50;9.82;;;;;;;;;;10407217;28;20064;-58
2024/02/02 02:19:59;;;;;;;13.18;9.30;;;;;;;;;;10407620;28;20025;-58
2024/02/02 02:25:00;;;;;;;12.75;9.35;;;;;;;;;;10406403;28;20033;-58
2024/02/02 02:30:01;;;;;;;13.07;9.32;;;;;;;;;;10407500;28;20029;-59
2024/02/02 02:35:02;;;;;;;11.90;8.68;;;;;;;;;;10407093;28;20069;-60
2024/02/02 02:40:03;;;;;;;14.95;9.80;;;;;;;;;;10406495;28;20149;-59
2024/02/02 02:45:04;;;;;;;15.38;9.48;;;;;;;;;;10406600;28;20519;-59
2024/02/02 02:50:05;;;;;;;12.15;9.00;;;;;;;;;;10406303;28;20392;-59
2024/02/02 02:55:06;;;;;;;13.82;8.85;;;;;;;;;;10405213;28;20116;-59
2024/02/02 03:00:09;;;;;;;11.70;9.00;;;;;;;;;;10406219;28;20021;-59
2024/02/02 03:05:11;;;;;;;12.63;9.00;;;;;;;;;;10393317;28;20204;-59
2024/02/02 03:10:12;;;;;;;13.25;8.70;;;;;;;;;;10393105;28;20038;-59
2024/02/02 03:15:13;;;;;;;13.73;9.35;;;;;;;;;;10404516;28;20072;-59
2024/02/02 03:20:14;;;;;;;10.90;8.52;;;;;;;;;;10405028;28;20029;-61
2024/02/02 03:25:14;;;;;;;9.73;8.40;;;;;;;;;;10405143;28;20029;-60
2024/02/02 03:30:15;;;;;;;10.52;8.60;;;;;;;;;;10392188;28;20033;-61
2024/02/02 03:35:16;;;;;;;10.90;9.07;;;;;;;;;;10404226;28;20131;-62
2024/02/02 03:40:16;;;;;;;11.35;8.10;;;;;;;;;;10396994;28;20068;-60
2024/02/02 03:45:17;;;;;;;11.38;8.85;;;;;;;;;;10397358;28;20385;-61
2024/02/02 03:50:19;;;;;;;11.73;8.88;;;;;;;;;;10404336;28;20450;-61
2024/02/02 03:55:20;;;;;;;11.32;8.30;;;;;;;;;;10404253;28;20109;-61
2024/02/02 04:00:20;;;;;;;11.82;8.88;;;;;;;;;;10404614;28;20037;-60
2024/02/02 04:05:21;;;;;;;10.32;8.02;;;;;;;;;;10397135;28;20069;-61
2024/02/02 04:10:22;;;;;;;13.07;8.75;;;;;;;;;;10405045;28;20021;-61
2024/02/02 04:15:23;;;;;;;13.93;8.57;;;;;;;;;;10404143;28;20038;-61
2024/02/02 04:20:23;;;;;;;11.90;8.57;;;;;;;;;;10410643;28;20034;-61
2024/02/02 04:25:24;;;;;;;11.73;8.52;;;;;;;;;;10387198;28;20034;-59
2024/02/02 04:30:25;;;;;;;12.10;8.88;;;;;;;;;;10402702;28;20040;-58
2024/02/02 04:35:25;;;;;;;11.05;8.55;;;;;;;;;;10392814;28;20041;-59
2024/02/02 04:40:26;;;;;;;13.13;9.10;;;;;;;;;;10410283;28;20050;-59
2024/02/02 04:45:26;;;;;;;11.05;8.23;;;;;;;;;;10411058;28;20037;-59
2024/02/02 04:50:28;;;;;;;11.68;8.35;;;;;;;;;;10410362;28;20536;-59
2024/02/02 04:55:29;;;;;;;11.35;8.60;;;;;;;;;;10410624;28;20112;-59
2024/02/02 05:00:29;;;;;;;12.70;8.57;;;;;;;;;;10411089;28;20447;-59
2024/02/02 05:05:30;;;;;;;13.07;8.85;;;;;;;;;;10398375;28;20050;-59
2024/02/02 05:10:32;;;;;;;10.93;8.20;;;;;;;;;;10398920;28;20070;-60
2024/02/02 05:15:32;;;;;;;10.93;8.25;;;;;;;;;;10410848;28;20036;-60
2024/02/02 05:20:33;;;;;;;10.60;8.50;;;;;;;;;;10410437;28;20802;-60
2024/02/02 05:25:34;;;;;;;10.80;8.20;;;;;;;;;;10409295;28;20025;-60
2024/02/02 05:30:36;;;;;;;9.93;8.10;;;;;;;;;;10408993;28;20064;-60
2024/02/02 05:35:36;;;;;;;11.85;8.20;;;;;;;;;;10405062;28;20018;-61
2024/02/02 05:40:37;;;;;;;9.70;7.97;;;;;;;;;;10406208;28;20375;-61
2024/02/02 05:45:38;;;;;;;9.73;7.70;;;;;;;;;;10405129;28;20159;-60
2024/02/02 05:50:38;;;;;;;12.23;8.68;;;;;;;;;;10403074;28;20021;-60
2024/02/02 05:55:39;;;;;;;16.77;9.13;;;;;;;;;;10406541;28;20113;-60
2024/02/02 06:00:40;;;;;;;13.30;10.23;;;;;;;;;;10400480;28;20037;-60
2024/02/02 06:05:41;;;;;;;15.00;11.02;;;;;;;;;;10403844;28;20195;-61
2024/02/02 06:10:41;;;;;;;18.83;13.02;;;;;;;;;;10393041;28;20459;-61
2024/02/02 06:15:42;;;;;;;19.65;13.88;;;;;;;;;;10401773;28;20037;-60
2024/02/02 06:20:43;;;;;;;19.40;13.27;;;;;;;;;;10383084;28;20025;-61
2024/02/02 06:25:43;;;;;;;22.35;14.70;;;;;;;;;;10384779;28;20033;-60
2024/02/02 06:30:48;;;;;;;18.55;13.00;;;;;;;;;;10407671;28;20023;-61
2024/02/02 06:35:48;;;;;;;27.85;13.15;;;;;;;;;;10401277;28;20029;-61
2024/02/02 06:40:49;;;;;;;18.70;12.68;;;;;;;;;;10405309;28;20021;-61
2024/02/02 06:45:50;;;;;;;18.88;12.60;;;;;;;;;;10407124;28;20456;-61
2024/02/02 06:50:50;;;;;;;20.08;13.18;;;;;;;;;;10406746;28;20026;-61
2024/02/02 06:55:51;;;;;;;23.52;13.20;;;;;;;;;;10397574;28;20435;-60
2024/02/02 07:00:51;;;;;;;41.20;14.00;;;;;;;;;;10406843;28;20029;-59
2024/02/02 07:05:52;;;;;;;44.78;14.02;;;;;;;;;;10406252;28;20029;-59
2024/02/02 07:11:12;;;;;;;45.13;13.30;;;;;;;;;;10404275;28;20057;-59
2024/02/02 07:16:18;;;;;;;38.05;13.65;;;;;;;;;;10391595;28;20476;-59
2024/02/02 07:21:19;;;;;;;27.25;13.43;;;;;;;;;;10399621;28;20568;-59
2024/02/02 07:26:30;;;;;;;21.42;13.02;;;;;;;;;;10406098;28;20025;-59
2024/02/02 07:31:38;;;;;;;21.80;12.32;;;;;;;;;;10406177;28;20165;-59
2024/02/02 07:36:38;;;;;;;22.48;13.60;;;;;;;;;;10404125;28;20469;-59
2024/02/02 07:41:39;;;;;;;19.25;12.77;;;;;;;;;;10405770;28;20029;-59
2024/02/02 07:46:40;;;;;;;21.77;12.50;;;;;;;;;;10405772;28;20104;-59
2024/02/02 07:51:43;;;;;;;19.15;12.13;;;;;;;;;;10405177;28;20033;-59
2024/02/02 07:56:43;;;;;;;23.85;13.20;;;;;;;;;;10407245;28;20061;-59
2024/02/02 08:01:44;;;;;;;22.65;12.73;;;;;;;;;;10407484;28;20049;-59
2024/02/02 08:06:44;;;;;;;24.27;12.80;;;;;;;;;;10387275;28;20041;-59
2024/02/02 08:11:45;;;;;;;20.08;12.55;;;;;;;;;;10403514;28;20029;-59
2024/02/02 08:16:46;;;;;;;25.40;13.73;;;;;;;;;;10408583;28;20522;-59
2024/02/02 08:21:46;;;;;;;17.83;12.52;;;;;;;;;;10412003;28;20112;-59
2024/02/02 08:26:47;;;;;;;21.27;12.82;;;;;;;;;;10398933;28;20018;-59
2024/02/02 08:31:48;;;;;;;22.20;13.38;;;;;;;;;;10411631;28;20084;-59
2024/02/02 08:36:49;;;;;;;16.90;12.48;;;;;;;;;;10403748;28;20045;-59
2024/02/02 08:41:49;;;;;;;19.95;12.45;;;;;;;;;;10411749;28;20021;-59
2024/02/02 08:46:51;;;;;;;21.42;11.88;;;;;;;;;;10411124;28;20049;-59
2024/02/02 08:51:51;;;;;;;18.65;12.60;;;;;;;;;;10411536;28;20440;-59
2024/02/02 08:57:19;;;;;;;20.27;11.98;;;;;;;;;;10410314;28;20030;-59
2024/02/02 09:03:00;;;;;;;21.43;12.27;;;;;;;;;;10410956;28;20456;-58
2024/02/02 09:08:39;;;;;;;23.65;12.13;;;;;;;;;;10402789;28;20466;-59
2024/02/02 09:13:40;;;;;;;18.85;12.52;;;;;;;;;;10410314;28;20044;-59
2024/02/02 09:18:45;;;;;;;18.73;12.70;;;;;;;;;;10397452;28;20026;-58
2024/02/02 09:23:49;;;;;;;19.50;11.88;;;;;;;;;;10386642;28;20025;-59
2024/02/02 09:28:50;;;;;;;21.67;12.05;;;;;;;;;;10407713;28;20018;-59
2024/02/02 09:33:54;;;;;;;23.20;11.68;;;;;;;;;;10409106;28;20026;-59
2024/02/02 09:39:04;;;;;;;22.60;10.82;;;;;;;;;;10401571;28;20063;-59
2024/02/02 09:44:33;;;;;;;19.58;10.60;;;;;;;;;;10398481;28;20117;-59
2024/02/02 09:50:06;;;;;;;15.48;10.63;;;;;;;;;;10371332;28;20026;-59
2024/02/02 09:55:23;;;;;;;17.20;11.27;;;;;;;;;;10413799;28;20532;-59
2024/02/02 10:01:00;;;;;;;18.80;10.75;;;;;;;;;;10407407;28;20030;-59
2024/02/02 10:06:19;;;;;;;16.77;10.35;;;;;;;;;;10389456;28;20486;-59
2024/02/02 10:11:34;;;;;;;;;;;;;;;;;;10402991;28;20215;-59
2024/02/02 10:16:49;;;;;;;16.48;10.15;;;;;;;;;;10394324;28;19920;-59
2024/02/02 10:22:14;;;;;;;14.68;10.05;;;;;;;;;;10407651;28;20096;-59
2024/02/02 10:27:53;;;;;;;15.85;10.07;;;;;;;;;;10394628;28;20307;-59
2024/02/02 10:33:35;;;;;;;14.93;9.65;;;;;;;;;;10396595;28;20037;-58
2024/02/02 10:39:09;;;;;;;13.25;9.48;;;;;;;;;;10372384;28;20060;-59
2024/02/02 10:44:12;;;;;;;16.52;10.80;;;;;;;;;;10396794;28;20022;-59
2024/02/02 10:49:41;;;;;;;14.50;10.18;;;;;;;;;;10391698;28;20388;-58
2024/02/02 10:55:05;;;;;;;14.20;9.30;;;;;;;;;;10364816;28;20045;-58
2024/02/02 11:00:23;;;;;;;13.40;9.50;;;;;;;;;;10395465;28;20029;-59
2024/02/02 11:05:41;;;;;;;17.23;10.83;;;;;;;;;;10393835;28;20485;-59
2024/02/02 11:11:12;;;;;;;15.67;9.90;;;;;;;;;;10382481;28;20030;-58
2024/02/02 11:17:01;;;;;;;16.48;9.68;;;;;;;;;;10396142;28;20553;-58
2024/02/02 11:22:20;;;;;;;;;;;;;;;;;;10222670;29;20483;-59
2024/02/02 11:27:42;;;;;;;14.05;9.38;;;;;;;;;;10225897;28;19922;-59
2024/02/02 11:33:03;;;;;;;11.98;9.50;;;;;;;;;;10227217;28;20050;-58
2024/02/02 11:38:28;;;;;;;11.48;8.52;;;;;;;;;;10238400;29;20070;-58
2024/02/02 11:43:30;;;;;;;14.43;9.07;;;;;;;;;;10230913;28;20043;-59
2024/02/02 11:48:41;;;;;;;14.57;9.02;;;;;;;;;;10209404;28;20035;-59
2024/02/02 11:53:54;;;;;;;16.23;9.85;;;;;;;;;;10292208;28;20051;-58
2024/02/02 11:59:27;;;;;;;14.52;9.93;;;;;;;;;;10391730;28;20061;-59
2024/02/02 12:04:42;;;;;;;14.38;9.27;;;;;;;;;;10404357;28;20029;-58
2024/02/02 12:09:58;;;;;;;13.40;9.20;;;;;;;;;;10390487;28;20108;-59
2024/02/02 12:14:58;;;;;;;14.02;8.68;;;;;;;;;;10403090;28;20033;-59
2024/02/02 12:19:59;;;;;;;11.80;8.90;;;;;;;;;;10404589;28;20389;-59
2024/02/02 12:25:04;;;;;;;12.27;8.38;;;;;;;;;;10391408;28;20032;-59
2024/02/02 12:30:07;;;;;;;11.73;8.85;;;;;;;;;;10391846;28;20025;-60
2024/02/02 12:35:08;;;;;;;11.68;8.98;;;;;;;;;;10399254;28;20037;-59
2024/02/02 12:40:10;;;;;;;13.40;9.45;;;;;;;;;;10392847;28;20448;-59
2024/02/02 12:45:14;;;;;;;14.82;9.45;;;;;;;;;;10401086;28;20445;-59
2024/02/02 12:50:17;;;;;;;12.07;9.23;;;;;;;;;;10384418;28;20112;-59
2024/02/02 12:55:21;;;;;;;10.90;8.35;;;;;;;;;;10375221;28;20026;-59
2024/02/02 13:00:22;;;;;;;14.73;8.73;;;;;;;;;;10391938;28;20029;-59
2024/02/02 13:05:26;;;;;;;13.18;8.70;;;;;;;;;;10408140;28;20111;-59
2024/02/02 13:10:45;;;;;;;11.88;8.38;;;;;;;;;;10402799;28;20038;-59
2024/02/02 13:15:46;;;;;;;11.82;8.40;;;;;;;;;;10404733;28;20029;-59
2024/02/02 13:20:54;;;;;;;12.18;8.43;;;;;;;;;;10399836;28;20028;-59
2024/02/02 13:26:03;;;;;;;15.88;9.00;;;;;;;;;;10397815;28;20045;-59
2024/02/02 13:31:22;;;;;;;11.98;8.73;;;;;;;;;;10409878;28;20369;-59
2024/02/02 13:36:23;;;;;;;11.48;8.30;;;;;;;;;;10406873;28;20093;-59
2024/02/02 13:41:24;;;;;;;19.92;8.07;;;;;;;;;;10406802;28;20033;-59
2024/02/02 13:46:26;;;;;;;22.85;9.02;;;;;;;;;;10404083;28;20112;-59
2024/02/02 13:51:28;;;;;;;14.80;9.43;;;;;;;;;;10409425;28;20064;-59
2024/02/02 13:56:29;;;;;;;13.45;7.88;;;;;;;;;;10407042;28;20032;-59
2024/02/02 14:01:29;;;;;;;12.07;8.40;;;;;;;;;;10410063;28;20044;-58
2024/02/02 14:06:31;;;;;;;15.23;8.40;;;;;;;;;;10408225;28;20033;-59
2024/02/02 14:11:32;;;;;;;16.35;8.27;;;;;;;;;;10396104;28;20388;-59
2024/02/02 14:16:32;;;;;;;11.10;7.85;;;;;;;;;;10400382;28;20037;-59
2024/02/02 14:21:36;;;;;;;12.95;8.32;;;;;;;;;;10389565;28;20493;-59
2024/02/02 14:26:50;;;;;;;14.45;8.15;;;;;;;;;;10402617;28;20299;-59
2024/02/02 14:31:55;;;;;;;13.43;7.70;;;;;;;;;;10377100;28;20362;-58
2024/02/02 14:36:56;;;;;;;18.00;7.38;;;;;;;;;;10388416;28;20076;-58
2024/02/02 14:41:58;;;;;;;12.93;7.63;;;;;;;;;;10381804;28;20045;-58
2024/02/02 14:47:00;;;;;;;17.95;6.82;;;;;;;;;;10400990;28;20037;-58
2024/02/02 14:52:00;;;;;;;13.20;6.97;;;;;;;;;;10385240;28;20021;-59
2024/02/02 14:57:01;;;;;;;16.38;8.35;;;;;;;;;;10385093;28;20033;-58
2024/02/02 15:02:02;;;;;;;14.05;7.90;;;;;;;;;;10382931;28;20418;-58
2024/02/02 15:07:03;;;;;;;19.55;8.40;;;;;;;;;;10392194;28;20178;-58
2024/02/02 15:12:06;;;;;;;18.25;8.07;;;;;;;;;;10383055;28;20161;-57
2024/02/02 15:17:07;;;;;;;20.42;7.85;;;;;;;;;;10381164;28;20104;-58
2024/02/02 15:22:07;;;;;;;16.95;7.80;;;;;;;;;;10380234;28;20474;-58
2024/02/02 15:27:09;;;;;;;15.20;7.47;;;;;;;;;;10377053;28;20041;-58
2024/02/02 15:32:09;;;;;;;14.88;7.85;;;;;;;;;;10399654;28;20029;-58
2024/02/02 15:37:10;;;;;;;13.25;7.93;;;;;;;;;;10383726;28;20050;-58
2024/02/02 15:42:11;;;;;;;18.30;7.28;;;;;;;;;;10389276;28;20021;-57
2024/02/02 15:47:11;;;;;;;22.52;9.52;;;;;;;;;;10393111;28;20492;-58
2024/02/02 15:52:12;;;;;;;15.68;7.80;;;;;;;;;;10391228;28;20377;-57
2024/02/02 15:57:12;;;;;;;17.35;8.73;;;;;;;;;;10396121;28;20037;-58
2024/02/02 16:02:13;;;;;;;22.08;8.25;;;;;;;;;;10399815;28;20025;-58
2024/02/02 16:07:15;;;;;;;24.42;8.00;;;;;;;;;;10374558;28;20528;-58
2024/02/02 16:12:16;;;;;;;20.65;8.35;;;;;;;;;;10372285;28;20030;-58
2024/02/02 16:17:16;;;;;;;18.63;8.20;;;;;;;;;;10380309;28;20022;-58
2024/02/02 16:22:19;;;;;;;21.30;7.88;;;;;;;;;;10389385;28;20033;-57
2024/02/02 16:27:19;;;;;;;20.35;8.30;;;;;;;;;;10383232;28;20030;-58
2024/02/02 16:32:20;;;;;;;25.35;8.13;;;;;;;;;;10407387;28;20022;-57
2024/02/02 16:37:20;;;;;;;25.70;8.77;;;;;;;;;;10387038;28;20041;-58
2024/02/02 16:42:21;;;;;;;25.52;8.38;;;;;;;;;;10384502;28;20022;-58
2024/02/02 16:47:22;;;;;;;24.50;8.15;;;;;;;;;;10396520;28;20558;-58
2024/02/02 16:52:22;;;;;;;21.25;8.15;;;;;;;;;;10378090;28;20188;-58
2024/02/02 16:57:23;;;;;;;23.45;7.97;;;;;;;;;;10384175;28;20041;-60
2024/02/02 17:02:23;;;;;;;20.20;8.15;;;;;;;;;;10404897;28;20022;-58
2024/02/02 17:07:25;;;;;;;21.50;7.65;;;;;;;;;;10407394;28;20367;-57
2024/02/02 17:12:26;;;;;;;16.10;8.52;;;;;;;;;;10406563;28;20385;-57
2024/02/02 17:17:27;;;;;;;22.38;7.97;;;;;;;;;;10397951;28;20037;-58
2024/02/02 17:22:27;;;;;;;12.98;7.47;;;;;;;;;;10398640;28;20157;-58
2024/02/02 17:27:28;;;;;;;16.08;7.40;;;;;;;;;;10385923;28;20022;-57
2024/02/02 17:32:35;;;;;;;14.10;7.03;;;;;;;;;;10379313;28;20029;-58
2024/02/02 17:37:36;;;;;;;14.73;7.25;;;;;;;;;;10386050;28;20052;-58
2024/02/02 17:42:37;;;;;;;15.38;7.13;;;;;;;;;;10396652;28;20373;-57
2024/02/02 17:47:37;;;;;;;15.70;7.50;;;;;;;;;;10379179;28;20105;-57
2024/02/02 17:52:39;;;;;;;13.10;7.25;;;;;;;;;;10384448;28;20029;-57
2024/02/02 17:57:39;;;;;;;14.07;6.65;;;;;;;;;;10392025;28;20040;-57
2024/02/02 18:02:41;;;;;;;15.82;6.78;;;;;;;;;;10398202;28;20041;-58
2024/02/02 18:07:42;;;;;;;9.60;5.93;;;;;;;;;;10408813;28;20048;-58
2024/02/02 18:12:43;;;;;;;13.07;7.07;;;;;;;;;;10409017;28;20033;-57
2024/02/02 18:17:43;;;;;;;9.65;6.00;;;;;;;;;;10403045;28;20052;-57
2024/02/02 18:22:44;;;;;;;12.48;6.22;;;;;;;;;;10402208;28;20131;-57
2024/02/02 18:27:45;;;;;;;11.48;5.93;;;;;;;;;;10408435;28;20104;-58
2024/02/02 18:32:45;;;;;;;9.93;5.95;;;;;;;;;;10407966;28;20385;-57
2024/02/02 18:37:48;;;;;;;12.00;6.20;;;;;;;;;;10398774;28;20111;-58
2024/02/02 18:42:50;;;;;;;11.80;5.97;;;;;;;;;;10402395;28;20060;-55
2024/02/02 18:47:50;;;;;;;9.00;6.43;;;;;;;;;;10398212;28;20024;-57
2024/02/02 18:52:53;;;;;;;12.40;6.53;;;;;;;;;;10407450;28;20036;-56
2024/02/02 18:57:53;;;;;;;10.13;6.05;;;;;;;;;;10405881;28;20497;-57
2024/02/02 19:02:54;;;;;;;13.27;6.35;;;;;;;;;;10397759;28;20030;-57
2024/02/02 19:07:54;;;;;;;14.55;6.60;;;;;;;;;;10388771;28;20037;-57
2024/02/02 19:12:55;;;;;;;10.43;6.18;;;;;;;;;;10406516;28;20030;-57
2024/02/02 19:18:01;;;;;;;12.82;6.10;;;;;;;;;;10402122;28;20041;-57
2024/02/02 19:23:03;;;;;;;13.57;5.43;;;;;;;;;;10372143;28;20052;-57
2024/02/02 19:28:05;;;;;;;10.93;6.45;;;;;;;;;;10382036;28;20307;-56
2024/02/02 19:33:05;;;;;;;7.95;5.82;;;;;;;;;;10405322;28;20017;-57
2024/02/02 19:38:06;;;;;;;11.18;6.18;;;;;;;;;;10395808;28;20497;-57
2024/02/02 19:43:06;;;;;;;13.65;6.75;;;;;;;;;;10402322;28;20033;-57
2024/02/02 19:48:08;;;;;;;13.77;6.50;;;;;;;;;;10400124;28;20037;-57
2024/02/02 19:53:08;;;;;;;12.40;6.38;;;;;;;;;;10399097;28;20393;-57
2024/02/02 19:58:09;;;;;;;9.30;6.47;;;;;;;;;;10400000;28;20032;-57
2024/02/02 20:03:10;;;;;;;12.43;6.57;;;;;;;;;;10400240;28;20078;-57
2024/02/02 20:08:10;;;;;;;11.75;7.05;;;;;;;;;;10402657;28;20044;-57
2024/02/02 20:13:11;;;;;;;15.15;7.38;;;;;;;;;;10400564;28;20033;-57
2024/02/02 20:18:12;;;;;;;11.70;6.38;;;;;;;;;;10396196;28;20040;-57
2024/02/02 20:23:12;;;;;;;12.88;6.75;;;;;;;;;;10401036;28;20084;-58
2024/02/02 20:28:13;;;;;;;10.48;7.03;;;;;;;;;;10404987;28;20044;-58
2024/02/02 20:33:15;;;;;;;9.50;6.40;;;;;;;;;;10408030;28;20104;-58
2024/02/02 20:38:15;;;;;;;10.00;6.47;;;;;;;;;;10410742;28;20472;-57
2024/02/02 20:43:16;;;;;;;11.00;6.78;;;;;;;;;;10404017;28;20030;-58
2024/02/02 20:48:22;;;;;;;13.55;7.10;;;;;;;;;;10412265;28;20029;-56
2024/02/02 20:53:23;;;;;;;25.13;9.05;;;;;;;;;;10401829;28;20393;-57
2024/02/02 20:58:23;;;;;;;17.58;8.35;;;;;;;;;;10399921;28;20029;-57
2024/02/02 21:03:24;;;;;;;19.38;8.70;;;;;;;;;;10386668;28;20030;-58
2024/02/02 21:08:25;;;;;;;18.92;8.70;;;;;;;;;;10408555;28;20074;-57
2024/02/02 21:13:25;;;;;;;16.92;8.77;;;;;;;;;;10388644;28;20100;-58
2024/02/02 21:18:26;;;;;;;17.20;9.15;;;;;;;;;;10394747;28;20060;-57
2024/02/02 21:23:27;;;;;;;19.30;8.90;;;;;;;;;;10410363;28;20033;-57
2024/02/02 21:28:27;;;;;;;19.55;8.88;;;;;;;;;;10410349;28;20473;-57
2024/02/02 21:33:28;;;;;;;18.80;9.77;;;;;;;;;;10409724;28;20481;-57
2024/02/02 21:38:29;;;;;;;15.75;9.38;;;;;;;;;;10400682;28;20219;-57
2024/02/02 21:43:30;;;;;;;25.55;10.32;;;;;;;;;;10409845;28;20112;-57
2024/02/02 21:48:32;;;;;;;16.75;9.73;;;;;;;;;;10409528;28;20017;-57
2024/02/02 21:53:33;;;;;;;21.15;9.40;;;;;;;;;;10409469;28;20034;-57
2024/02/02 21:58:34;;;;;;;15.90;9.38;;;;;;;;;;10408875;28;20029;-58
2024/02/02 22:03:39;;;;;;;17.55;9.95;;;;;;;;;;10385017;28;20092;-58
2024/02/02 22:08:40;;;;;;;16.30;9.60;;;;;;;;;;10395873;28;20030;-57
2024/02/02 22:13:40;;;;;;;17.25;10.40;;;;;;;;;;10408805;28;20443;-57
2024/02/02 22:18:41;;;;;;;16.08;9.57;;;;;;;;;;10408678;28;20033;-57
2024/02/02 22:23:42;;;;;;;18.90;10.13;;;;;;;;;;10407362;28;20153;-57
2024/02/02 22:28:42;;;;;;;18.13;9.75;;;;;;;;;;10406357;28;20492;-57
2024/02/02 22:33:44;;;;;;;15.60;10.23;;;;;;;;;;10406416;28;20496;-57
2024/02/02 22:38:45;;;;;;;18.35;9.90;;;;;;;;;;10401626;28;20069;-57
2024/02/02 22:43:46;;;;;;;18.20;10.50;;;;;;;;;;10398039;28;20103;-57
2024/02/02 22:48:48;;;;;;;17.58;10.32;;;;;;;;;;10388546;28;20040;-58
2024/02/02 22:53:48;;;;;;;18.92;10.70;;;;;;;;;;10376702;28;20087;-57
2024/02/02 22:58:49;;;;;;;26.38;11.57;;;;;;;;;;10375174;28;20033;-57
2024/02/02 23:03:50;;;;;;;21.65;11.73;;;;;;;;;;10376909;28;20113;-58
2024/02/02 23:08:51;;;;;;;17.77;9.55;;;;;;;;;;10377482;28;20084;-58
2024/02/02 23:13:51;;;;;;;18.52;11.10;;;;;;;;;;10394188;28;20087;-58
2024/02/02 23:18:52;;;;;;;22.45;11.10;;;;;;;;;;10406686;28;20071;-58
2024/02/02 23:23:53;;;;;;;23.00;10.70;;;;;;;;;;10405644;28;20425;-58
2024/02/02 23:28:53;;;;;;;21.40;10.75;;;;;;;;;;10405451;28;20041;-58
2024/02/02 23:33:55;;;;;;;17.60;11.18;;;;;;;;;;10403695;28;20046;-58
2024/02/02 23:38:55;;;;;;;15.90;10.32;;;;;;;;;;10396363;28;20068;-58
2024/02/02 23:43:56;;;;;;;18.83;10.25;;;;;;;;;;10402140;28;20032;-59
2024/02/02 23:48:58;;;;;;;21.40;10.30;;;;;;;;;;10405100;28;20049;-59
2024/02/02 23:53:59;;;;;;;16.75;9.68;;;;;;;;;;10406045;28;20029;-58
2024/02/02 23:58:59;;;;;;;20.42;10.48;;;;;;;;;;10405936;28;20029;-58
